createdAt,value
2023-04-22T00:00:10.021Z,7.21
2023-04-22T00:02:39.903Z,7.22
2023-04-22T00:05:14.007Z,7.19
2023-04-22T00:07:44.412Z,7.17
2023-04-22T00:10:15.057Z,7.14
2023-04-22T00:12:44.084Z,7.17
2023-04-22T00:15:13.412Z,7.12
2023-04-22T00:17:42.905Z,7.08
2023-04-22T00:20:12.808Z,7.05
2023-04-22T00:22:41.643Z,7.01
2023-04-22T00:25:10.998Z,7.00
2023-04-22T00:27:41.370Z,6.92
2023-04-22T00:30:10.992Z,6.95
2023-04-22T00:32:39.929Z,6.88
2023-04-22T00:35:09.918Z,6.78
2023-04-22T00:37:38.770Z,6.81
2023-04-22T00:40:09.076Z,6.84
2023-04-22T00:42:38.736Z,6.78
2023-04-22T00:45:12.467Z,6.77
2023-04-22T00:47:41.986Z,6.75
2023-04-22T00:50:11.143Z,6.66
2023-04-22T00:52:39.703Z,6.63
2023-04-22T00:55:09.396Z,6.60
2023-04-22T00:57:38.906Z,6.55
2023-04-22T01:00:11.147Z,6.52
2023-04-22T01:02:40.804Z,6.50
2023-04-22T01:05:10.681Z,6.45
2023-04-22T01:07:39.483Z,6.41
2023-04-22T01:10:09.561Z,6.37
2023-04-22T01:12:38.490Z,6.34
2023-04-22T01:15:10.153Z,6.36
2023-04-22T01:17:39.167Z,6.34
2023-04-22T01:20:10.645Z,6.33
2023-04-22T01:22:43.087Z,6.33
2023-04-22T01:25:14.045Z,6.29
2023-04-22T01:27:43.125Z,6.20
2023-04-22T01:30:12.941Z,6.18
2023-04-22T01:32:42.123Z,6.11
2023-04-22T01:35:11.786Z,6.12
2023-04-22T01:37:41.266Z,6.04
2023-04-22T01:40:13.107Z,6.07
2023-04-22T01:42:43.476Z,5.98
2023-04-22T01:45:13.318Z,5.94
2023-04-22T01:47:42.252Z,5.90
2023-04-22T01:50:11.923Z,5.84
2023-04-22T01:52:41.223Z,5.76
2023-04-22T01:55:11.062Z,5.78
2023-04-22T01:57:39.954Z,5.82
2023-04-22T02:00:11.744Z,5.89
2023-04-22T02:02:47.877Z,5.73
2023-04-22T02:05:17.230Z,5.68
2023-04-22T02:07:47.792Z,5.66
2023-04-22T02:10:18.870Z,5.63
2023-04-22T02:12:48.039Z,5.58
2023-04-22T02:15:18.456Z,5.55
2023-04-22T02:17:47.616Z,5.49
2023-04-22T02:20:16.655Z,5.43
2023-04-22T02:22:46.537Z,5.38
2023-04-22T02:25:15.513Z,5.41
2023-04-22T02:27:44.600Z,5.33
2023-04-22T02:30:14.470Z,5.26
2023-04-22T02:32:44.954Z,5.25
2023-04-22T02:35:13.956Z,5.18
2023-04-22T02:37:43.675Z,5.14
2023-04-22T02:40:13.475Z,5.19
2023-04-22T02:42:42.419Z,5.18
2023-04-22T02:45:12.415Z,5.12
2023-04-22T02:47:42.727Z,5.19
2023-04-22T02:50:13.833Z,5.18
2023-04-22T02:52:42.415Z,5.01
2023-04-22T02:55:11.622Z,5.19
2023-04-22T02:57:41.058Z,5.06
2023-04-22T03:00:11.569Z,5.29
2023-04-22T03:02:40.723Z,5.35
2023-04-22T03:05:14.833Z,5.39
2023-04-22T03:07:43.436Z,5.24
2023-04-22T03:10:12.926Z,5.03
2023-04-22T03:12:42.298Z,4.98
2023-04-22T03:15:11.867Z,4.91
2023-04-22T03:17:42.137Z,4.92
2023-04-22T03:20:16.369Z,4.90
2023-04-22T03:22:44.904Z,4.86
2023-04-22T03:25:15.601Z,4.83
2023-04-22T03:27:50.352Z,4.87
2023-04-22T03:30:21.042Z,4.95
2023-04-22T03:32:50.633Z,4.89
2023-04-22T03:35:49.282Z,4.93
2023-04-22T03:38:18.605Z,5.00
2023-04-22T03:40:47.463Z,5.03
2023-04-22T03:43:28.029Z,5.10
2023-04-22T03:46:10.084Z,5.06
2023-04-22T03:48:46.392Z,5.14
2023-04-22T03:51:29.200Z,5.24
2023-04-22T03:54:00.179Z,5.22
2023-04-22T03:56:31.503Z,5.32
2023-04-22T03:59:02.631Z,5.37
2023-04-22T04:01:31.735Z,5.45
2023-04-22T04:04:30.778Z,5.59
2023-04-22T04:07:04.265Z,5.65
2023-04-22T04:09:33.279Z,5.71
2023-04-22T04:12:03.475Z,5.85
2023-04-22T04:14:37.406Z,5.95
2023-04-22T04:17:09.805Z,6.10
2023-04-22T04:19:39.340Z,6.25
2023-04-22T04:22:10.746Z,6.43
2023-04-22T04:24:48.781Z,6.51
2023-04-22T04:27:24.096Z,6.64
2023-04-22T04:29:56.239Z,6.78
2023-04-22T04:32:51.269Z,6.92
2023-04-22T04:35:20.768Z,7.04
2023-04-22T04:37:55.467Z,7.17
2023-04-22T04:40:25.183Z,7.25
2023-04-22T04:43:08.506Z,7.42
2023-04-22T04:45:57.958Z,7.56
2023-04-22T04:48:36.794Z,7.66
2023-04-22T04:51:10.260Z,7.87
2023-04-22T04:53:46.177Z,8.04
2023-04-22T04:56:15.312Z,8.13
2023-04-22T04:58:44.028Z,8.24
2023-04-22T05:01:26.118Z,8.23
2023-04-22T05:03:56.648Z,8.36
2023-04-22T05:06:27.147Z,8.37
2023-04-22T05:09:03.440Z,8.56
2023-04-22T05:11:32.668Z,8.74
2023-04-22T05:14:04.337Z,9.00
2023-04-22T05:16:36.769Z,9.17
2023-04-22T05:19:06.322Z,9.37
2023-04-22T05:21:36.338Z,9.58
2023-04-22T05:24:08.204Z,9.75
2023-04-22T05:26:37.638Z,9.89
2023-04-22T05:29:12.839Z,9.99
2023-04-22T05:31:41.396Z,10.14
2023-04-22T05:34:10.752Z,10.37
2023-04-22T05:36:40.230Z,10.57
2023-04-22T05:39:11.306Z,10.79
2023-04-22T05:41:40.814Z,10.74
2023-04-22T05:44:12.390Z,10.96
2023-04-22T05:46:41.765Z,11.02
2023-04-22T05:49:10.861Z,11.13
2023-04-22T05:51:58.687Z,11.30
2023-04-22T05:54:35.628Z,11.40
2023-04-22T05:57:05.878Z,11.50
2023-04-22T05:59:35.180Z,11.63
2023-04-22T06:02:06.764Z,11.76
2023-04-22T06:04:37.531Z,11.76
2023-04-22T06:07:07.675Z,11.66
2023-04-22T06:09:38.120Z,11.80
2023-04-22T06:12:07.970Z,11.83
2023-04-22T06:14:38.484Z,12.01
2023-04-22T06:17:08.626Z,12.17
2023-04-22T06:19:38.661Z,12.30
2023-04-22T06:22:07.845Z,12.59
2023-04-22T06:24:38.234Z,12.52
2023-04-22T06:27:06.921Z,12.56
2023-04-22T06:29:36.318Z,12.65
2023-04-22T06:32:05.429Z,12.74
2023-04-22T06:34:34.510Z,12.69
2023-04-22T06:37:04.939Z,12.65
2023-04-22T06:39:35.071Z,12.85
2023-04-22T06:42:26.466Z,13.29
2023-04-22T06:45:15.683Z,13.47
2023-04-22T06:48:07.629Z,13.46
2023-04-22T06:50:55.913Z,13.74
2023-04-22T06:53:25.870Z,14.03
2023-04-22T06:55:54.695Z,14.39
2023-04-22T06:58:25.181Z,14.45
2023-04-22T07:00:54.923Z,14.50
2023-04-22T07:03:24.112Z,14.51
2023-04-22T07:06:03.061Z,14.63
2023-04-22T07:08:34.527Z,14.68
2023-04-22T07:11:04.288Z,14.80
2023-04-22T07:13:40.137Z,15.08
2023-04-22T07:16:08.846Z,15.39
2023-04-22T07:18:38.782Z,15.53
2023-04-22T07:21:07.702Z,15.84
2023-04-22T07:23:36.669Z,16.73
2023-04-22T07:26:05.886Z,18.97
2023-04-22T07:28:34.448Z,21.61
2023-04-22T07:31:05.146Z,23.77
2023-04-22T07:33:33.987Z,25.20
2023-04-22T07:36:03.053Z,26.65
2023-04-22T07:38:31.900Z,27.59
2023-04-22T07:41:01.046Z,28.45
2023-04-22T07:43:29.580Z,29.13
2023-04-22T07:45:58.487Z,29.93
2023-04-22T07:48:28.981Z,30.50
2023-04-22T07:50:57.954Z,31.47
2023-04-22T07:53:26.897Z,31.66
2023-04-22T07:55:58.370Z,31.52
2023-04-22T07:58:28.313Z,30.01
2023-04-22T08:00:57.316Z,28.42
2023-04-22T08:03:26.587Z,27.44
2023-04-22T08:05:58.419Z,26.16
2023-04-22T08:08:27.575Z,24.74
2023-04-22T08:10:57.328Z,23.74
2023-04-22T08:13:26.425Z,23.47
2023-04-22T08:15:55.387Z,23.09
2023-04-22T08:18:24.374Z,22.23
2023-04-22T08:20:53.286Z,22.13
2023-04-22T08:23:23.694Z,21.72
2023-04-22T08:25:52.237Z,21.51
2023-04-22T08:28:21.525Z,21.40
2023-04-22T08:30:50.493Z,21.63
2023-04-22T08:33:20.561Z,21.73
2023-04-22T08:35:49.653Z,21.79
2023-04-22T08:38:18.727Z,21.57
2023-04-22T08:40:49.462Z,20.72
2023-04-22T08:43:18.553Z,19.77
2023-04-22T08:45:47.601Z,19.12
2023-04-22T08:48:17.328Z,17.38
2023-04-22T08:50:48.632Z,18.10
2023-04-22T08:53:17.619Z,18.78
2023-04-22T08:55:46.704Z,19.71
2023-04-22T08:58:17.176Z,19.58
2023-04-22T09:00:46.414Z,19.67
2023-04-22T09:03:15.670Z,18.84
2023-04-22T09:05:44.937Z,19.39
2023-04-22T09:08:14.519Z,19.77
2023-04-22T09:10:43.140Z,20.36
2023-04-22T09:13:12.211Z,21.13
2023-04-22T09:15:42.617Z,22.07
2023-04-22T09:18:12.001Z,25.53
2023-04-22T09:20:43.866Z,27.96
2023-04-22T09:23:14.094Z,30.51
2023-04-22T09:25:43.048Z,32.08
2023-04-22T09:28:14.032Z,32.99
2023-04-22T09:30:47.080Z,33.61
2023-04-22T09:33:17.556Z,34.28
2023-04-22T09:35:46.629Z,34.50
2023-04-22T09:38:15.779Z,32.66
2023-04-22T09:40:45.537Z,31.14
2023-04-22T09:43:16.638Z,31.93
2023-04-22T09:45:47.033Z,32.61
2023-04-22T09:48:18.488Z,34.68
2023-04-22T09:50:49.472Z,34.47
2023-04-22T09:53:19.999Z,35.99
2023-04-22T09:55:50.123Z,34.75
2023-04-22T09:58:20.069Z,35.51
2023-04-22T10:00:52.117Z,35.85
2023-04-22T10:03:21.386Z,35.22
2023-04-22T10:05:50.372Z,36.34
2023-04-22T10:08:19.454Z,37.44
2023-04-22T10:10:48.346Z,37.98
2023-04-22T10:13:17.367Z,39.36
2023-04-22T10:15:52.144Z,39.97
2023-04-22T10:18:24.504Z,36.58
2023-04-22T10:20:55.349Z,36.85
2023-04-22T10:23:25.614Z,37.00
2023-04-22T10:25:56.374Z,39.24
2023-04-22T10:28:27.102Z,40.04
2023-04-22T10:30:57.484Z,39.53
2023-04-22T10:33:40.268Z,38.67
2023-04-22T10:36:13.179Z,40.43
2023-04-22T10:38:43.099Z,41.88
2023-04-22T10:41:16.419Z,43.49
2023-04-22T10:43:48.925Z,42.91
2023-04-22T10:46:54.976Z,44.22
2023-04-22T10:49:26.153Z,43.19
2023-04-22T10:51:56.073Z,42.42
2023-04-22T10:55:01.646Z,41.89
2023-04-22T10:57:41.793Z,42.80
2023-04-22T11:00:52.587Z,43.14
2023-04-22T11:03:28.488Z,44.09
2023-04-22T11:06:26.611Z,44.75
2023-04-22T11:09:12.959Z,45.60
2023-04-22T11:11:42.411Z,44.34
2023-04-22T11:14:11.902Z,44.82
2023-04-22T11:16:40.655Z,44.52
2023-04-22T11:19:09.862Z,44.57
2023-04-22T11:21:40.446Z,44.39
2023-04-22T11:24:11.390Z,44.24
2023-04-22T11:26:41.511Z,44.62
2023-04-22T11:29:10.621Z,43.95
2023-04-22T11:31:39.723Z,44.21
2023-04-22T11:34:10.734Z,43.91
2023-04-22T11:36:44.543Z,44.14
2023-04-22T11:39:15.320Z,44.48
2023-04-22T11:41:44.541Z,44.79
2023-04-22T11:44:15.279Z,45.34
2023-04-22T11:46:45.820Z,45.90
2023-04-22T11:49:16.332Z,45.90
2023-04-22T11:51:58.940Z,45.17
2023-04-22T11:54:32.887Z,45.18
2023-04-22T11:57:06.218Z,45.90
2023-04-22T11:59:35.379Z,44.41
2023-04-22T12:02:06.945Z,45.90
2023-04-22T12:04:38.518Z,45.46
2023-04-22T12:07:09.254Z,43.96
2023-04-22T12:09:38.451Z,41.92
2023-04-22T12:12:08.897Z,41.65
2023-04-22T12:14:37.873Z,43.18
2023-04-22T12:17:06.988Z,42.89
2023-04-22T12:19:37.486Z,40.36
2023-04-22T12:22:06.315Z,40.21
2023-04-22T12:24:36.826Z,40.05
2023-04-22T12:27:06.855Z,39.48
2023-04-22T12:29:35.885Z,36.50
2023-04-22T12:32:04.886Z,33.12
2023-04-22T12:34:33.549Z,32.34
2023-04-22T12:37:02.541Z,34.12
2023-04-22T12:39:32.403Z,37.67
2023-04-22T12:42:02.841Z,39.87
2023-04-22T12:44:31.999Z,39.55
2023-04-22T12:47:00.991Z,38.74
2023-04-22T12:49:29.700Z,36.74
2023-04-22T12:51:58.690Z,33.14
2023-04-22T12:54:27.895Z,30.18
2023-04-22T12:56:57.993Z,31.85
2023-04-22T12:59:28.524Z,33.80
2023-04-22T13:01:57.455Z,33.14
2023-04-22T13:04:26.652Z,33.69
2023-04-22T13:06:57.487Z,34.41
2023-04-22T13:09:27.187Z,32.17
2023-04-22T13:11:56.218Z,30.18
2023-04-22T13:14:25.386Z,27.36
2023-04-22T13:16:55.463Z,25.16
2023-04-22T13:19:27.113Z,25.35
2023-04-22T13:21:56.222Z,26.63
2023-04-22T13:24:25.216Z,26.67
2023-04-22T13:26:54.789Z,29.15
2023-04-22T13:29:23.797Z,31.18
2023-04-22T13:31:55.482Z,32.36
2023-04-22T13:34:24.609Z,31.85
2023-04-22T13:36:53.602Z,31.14
2023-04-22T13:39:24.677Z,30.89
2023-04-22T13:41:54.189Z,31.47
2023-04-22T13:44:23.110Z,31.24
2023-04-22T13:46:52.050Z,31.77
2023-04-22T13:49:22.468Z,32.56
2023-04-22T13:51:51.446Z,32.85
2023-04-22T13:54:20.480Z,31.14
2023-04-22T13:56:49.637Z,30.17
2023-04-22T13:59:18.768Z,29.53
2023-04-22T14:01:47.281Z,29.88
2023-04-22T14:04:16.347Z,29.44
2023-04-22T14:06:46.849Z,29.08
2023-04-22T14:09:15.889Z,28.88
2023-04-22T14:11:45.114Z,28.97
2023-04-22T14:14:14.104Z,28.76
2023-04-22T14:16:43.062Z,28.35
2023-04-22T14:19:12.407Z,28.25
2023-04-22T14:21:41.871Z,27.93
2023-04-22T14:24:12.387Z,25.94
2023-04-22T14:26:42.615Z,27.23
2023-04-22T14:29:11.706Z,29.10
2023-04-22T14:31:40.282Z,30.43
2023-04-22T14:34:09.427Z,30.48
2023-04-22T14:36:38.556Z,30.26
2023-04-22T14:39:07.888Z,30.88
2023-04-22T14:41:38.219Z,30.21
2023-04-22T14:44:07.187Z,30.45
2023-04-22T14:46:35.811Z,27.12
2023-04-22T14:49:06.304Z,27.98
2023-04-22T14:51:36.642Z,29.65
2023-04-22T14:54:06.252Z,31.18
2023-04-22T14:56:34.887Z,33.29
2023-04-22T14:59:05.429Z,33.88
2023-04-22T15:01:34.516Z,32.75
2023-04-22T15:04:03.833Z,32.75
2023-04-22T15:06:33.762Z,33.32
2023-04-22T15:09:02.932Z,34.30
2023-04-22T15:11:31.716Z,34.41
2023-04-22T15:14:00.853Z,32.92
2023-04-22T15:16:31.537Z,33.40
2023-04-22T15:19:01.894Z,34.20
2023-04-22T15:21:30.864Z,35.13
2023-04-22T15:23:59.806Z,35.92
2023-04-22T15:26:28.952Z,36.51
2023-04-22T15:28:57.901Z,37.49
2023-04-22T15:31:27.343Z,35.90
2023-04-22T15:33:57.778Z,36.53
2023-04-22T15:36:26.717Z,34.09
2023-04-22T15:38:57.339Z,29.94
2023-04-22T15:41:27.058Z,30.58
2023-04-22T15:43:55.744Z,32.21
2023-04-22T15:46:24.795Z,32.10
2023-04-22T15:48:53.812Z,31.66
2023-04-22T15:51:24.306Z,32.10
2023-04-22T15:53:54.325Z,32.68
2023-04-22T15:56:23.377Z,34.10
2023-04-22T15:58:52.325Z,32.85
2023-04-22T16:01:21.476Z,31.26
2023-04-22T16:03:51.212Z,30.78
2023-04-22T16:06:20.341Z,29.54
2023-04-22T16:08:51.050Z,29.25
2023-04-22T16:11:20.217Z,30.30
2023-04-22T16:13:49.195Z,30.25
2023-04-22T16:16:18.371Z,30.01
2023-04-22T16:18:49.159Z,30.76
2023-04-22T16:21:18.509Z,30.88
2023-04-22T16:23:48.658Z,31.91
2023-04-22T16:26:19.898Z,30.18
2023-04-22T16:28:48.626Z,30.35
2023-04-22T16:31:22.876Z,30.83
2023-04-22T16:33:52.920Z,29.67
2023-04-22T16:36:21.634Z,28.07
2023-04-22T16:38:50.659Z,27.20
2023-04-22T16:41:21.649Z,27.32
2023-04-22T16:43:50.701Z,26.98
2023-04-22T16:46:20.506Z,26.85
2023-04-22T16:48:49.515Z,27.29
2023-04-22T16:51:18.484Z,26.94
2023-04-22T16:53:48.631Z,25.22
2023-04-22T16:56:18.209Z,23.43
2023-04-22T16:58:48.160Z,21.92
2023-04-22T17:01:17.165Z,20.84
2023-04-22T17:03:46.501Z,20.01
2023-04-22T17:06:15.590Z,19.26
2023-04-22T17:08:44.696Z,18.75
2023-04-22T17:11:14.667Z,18.33
2023-04-22T17:13:43.261Z,18.67
2023-04-22T17:16:13.887Z,19.57
2023-04-22T17:18:42.963Z,20.36
2023-04-22T17:21:13.098Z,20.17
2023-04-22T17:23:42.000Z,19.65
2023-04-22T17:26:11.131Z,18.89
2023-04-22T17:28:39.823Z,18.28
2023-04-22T17:31:09.170Z,17.92
2023-04-22T17:33:40.989Z,17.63
2023-04-22T17:36:10.118Z,17.44
2023-04-22T17:38:41.052Z,17.15
2023-04-22T17:41:10.354Z,17.01
2023-04-22T17:43:38.939Z,16.82
2023-04-22T17:46:09.327Z,16.67
2023-04-22T17:48:41.162Z,16.57
2023-04-22T17:51:10.389Z,16.43
2023-04-22T17:53:41.108Z,16.34
2023-04-22T17:56:10.541Z,16.22
2023-04-22T17:58:39.360Z,16.00
2023-04-22T18:01:08.713Z,15.92
2023-04-22T18:03:40.258Z,15.77
2023-04-22T18:06:09.552Z,15.68
2023-04-22T18:08:38.608Z,15.54
2023-04-22T18:11:07.708Z,15.51
2023-04-22T18:13:36.890Z,15.50
2023-04-22T18:16:06.455Z,15.52
2023-04-22T18:18:35.595Z,15.46
2023-04-22T18:21:06.160Z,15.39
2023-04-22T18:23:35.854Z,15.29
2023-04-22T18:26:09.873Z,15.11
2023-04-22T18:28:41.284Z,14.92
2023-04-22T18:31:10.409Z,14.81
2023-04-22T18:33:40.763Z,14.72
2023-04-22T18:36:11.752Z,14.65
2023-04-22T18:38:42.078Z,14.51
2023-04-22T18:41:13.058Z,14.49
2023-04-22T18:43:41.574Z,14.47
2023-04-22T18:46:10.820Z,14.48
2023-04-22T18:48:39.969Z,14.34
2023-04-22T18:51:10.463Z,14.21
2023-04-22T18:53:39.669Z,14.16
2023-04-22T18:56:08.750Z,14.06
2023-04-22T18:58:37.401Z,13.93
2023-04-22T19:01:07.059Z,13.76
2023-04-22T19:03:37.215Z,13.71
2023-04-22T19:06:07.134Z,13.72
2023-04-22T19:08:40.162Z,13.68
2023-04-22T19:11:09.324Z,13.58
2023-04-22T19:13:37.933Z,13.46
2023-04-22T19:16:07.849Z,13.40
2023-04-22T19:18:36.954Z,13.36
2023-04-22T19:21:07.083Z,13.29
2023-04-22T19:23:38.236Z,13.28
2023-04-22T19:26:09.529Z,13.22
2023-04-22T19:28:38.286Z,13.24
2023-04-22T19:31:09.156Z,13.28
2023-04-22T19:33:38.205Z,13.17
2023-04-22T19:36:07.421Z,13.09
2023-04-22T19:38:37.864Z,12.99
2023-04-22T19:41:08.944Z,12.85
2023-04-22T19:43:38.051Z,12.77
2023-04-22T19:46:07.039Z,12.72
2023-04-22T19:48:37.508Z,12.75
2023-04-22T19:51:06.769Z,12.71
2023-04-22T19:53:38.016Z,12.67
2023-04-22T19:56:07.197Z,12.50
2023-04-22T19:58:36.598Z,12.53
2023-04-22T20:01:06.003Z,12.45
2023-04-22T20:03:35.766Z,12.46
2023-04-22T20:06:07.794Z,12.55
2023-04-22T20:08:41.961Z,12.63
2023-04-22T20:11:11.593Z,12.33
2023-04-22T20:13:42.383Z,12.19
2023-04-22T20:16:11.978Z,11.90
2023-04-22T20:18:41.217Z,11.71
2023-04-22T20:21:10.571Z,11.92
2023-04-22T20:23:41.420Z,12.11
2023-04-22T20:26:10.781Z,12.25
2023-04-22T20:28:46.147Z,12.40
2023-04-22T20:31:18.458Z,12.37
2023-04-22T20:33:48.421Z,12.36
2023-04-22T20:36:18.902Z,12.24
2023-04-22T20:38:49.054Z,12.22
2023-04-22T20:41:20.285Z,12.27
2023-04-22T20:43:48.898Z,12.49
2023-04-22T20:46:18.808Z,12.61
2023-04-22T20:48:48.704Z,12.67
2023-04-22T20:51:17.991Z,12.52
2023-04-22T20:53:48.529Z,12.46
2023-04-22T20:56:17.630Z,12.39
2023-04-22T20:58:46.158Z,12.33
2023-04-22T21:01:16.681Z,12.25
2023-04-22T21:03:45.938Z,12.07
2023-04-22T21:06:15.343Z,11.65
2023-04-22T21:08:44.695Z,11.65
2023-04-22T21:11:15.865Z,11.51
2023-04-22T21:13:45.276Z,11.52
2023-04-22T21:16:15.407Z,11.46
2023-04-22T21:18:44.916Z,11.46
2023-04-22T21:21:15.819Z,11.30
2023-04-22T21:23:45.431Z,11.43
2023-04-22T21:26:16.758Z,11.63
2023-04-22T21:28:45.801Z,11.68
2023-04-22T21:31:15.570Z,11.77
2023-04-22T21:33:44.598Z,11.95
2023-04-22T21:36:13.688Z,11.85
2023-04-22T21:38:42.975Z,11.78
2023-04-22T21:41:12.061Z,11.73
2023-04-22T21:43:42.181Z,11.70
2023-04-22T21:46:11.342Z,11.69
2023-04-22T21:48:40.525Z,11.76
2023-04-22T21:51:10.036Z,11.69
2023-04-22T21:53:38.970Z,11.67
2023-04-22T21:56:08.266Z,11.50
2023-04-22T21:58:36.794Z,11.58
2023-04-22T22:01:07.664Z,11.62
2023-04-22T22:03:38.299Z,11.55
2023-04-22T22:06:07.663Z,11.39
2023-04-22T22:08:36.843Z,11.42
2023-04-22T22:11:07.024Z,11.29
2023-04-22T22:13:36.560Z,11.21
2023-04-22T22:16:07.309Z,11.06
2023-04-22T22:18:37.000Z,11.04
2023-04-22T22:21:06.114Z,10.98
2023-04-22T22:23:35.181Z,10.98
2023-04-22T22:26:04.369Z,10.96
2023-04-22T22:28:33.115Z,10.82
2023-04-22T22:31:02.625Z,10.73
2023-04-22T22:33:34.590Z,10.58
2023-04-22T22:36:03.782Z,10.51
2023-04-22T22:38:32.773Z,10.43
2023-04-22T22:41:01.791Z,10.44
2023-04-22T22:43:30.466Z,10.34
2023-04-22T22:45:59.820Z,10.31
2023-04-22T22:48:28.910Z,10.29
2023-04-22T22:50:59.439Z,10.22
2023-04-22T22:53:28.446Z,10.08
2023-04-22T22:55:56.930Z,10.14
2023-04-22T22:58:26.020Z,9.96
2023-04-22T23:00:54.985Z,9.90
2023-04-22T23:03:24.642Z,9.74
2023-04-22T23:05:53.636Z,9.65
2023-04-22T23:08:24.147Z,9.63
2023-04-22T23:10:52.870Z,9.45
2023-04-22T23:13:22.188Z,9.41
2023-04-22T23:15:51.220Z,9.49
2023-04-22T23:18:20.657Z,9.39
2023-04-22T23:20:50.346Z,9.43
2023-04-22T23:23:20.095Z,9.32
2023-04-22T23:25:50.913Z,9.29
2023-04-22T23:28:20.514Z,9.11
2023-04-22T23:30:50.648Z,9.02
2023-04-22T23:33:25.166Z,8.95
2023-04-22T23:35:56.677Z,8.90
2023-04-22T23:38:25.682Z,8.84
2023-04-22T23:40:55.646Z,8.83
2023-04-22T23:43:24.722Z,8.74
2023-04-22T23:45:53.798Z,8.67
2023-04-22T23:48:23.153Z,8.67
2023-04-22T23:50:52.425Z,8.69
2023-04-22T23:53:21.455Z,8.62
2023-04-22T23:55:50.447Z,8.45
2023-04-22T23:58:21.341Z,8.55
